createdAt,value
2018-01-30T00:00:03.980Z,7.90
2018-01-30T00:02:30.127Z,7.90
2018-01-30T00:04:57.052Z,7.90
2018-01-30T00:07:23.244Z,8.00
2018-01-30T00:09:49.384Z,8.00
2018-01-30T00:12:16.268Z,7.90
2018-01-30T00:14:42.433Z,7.90
2018-01-30T00:17:08.632Z,7.90
2018-01-30T00:19:34.783Z,7.90
2018-01-30T00:22:01.188Z,7.90
2018-01-30T00:24:27.605Z,7.90
2018-01-30T00:26:54.506Z,7.90
2018-01-30T00:29:20.687Z,7.90
2018-01-30T00:31:47.588Z,7.80
2018-01-30T00:34:13.732Z,7.80
2018-01-30T00:36:39.953Z,7.80
2018-01-30T00:39:06.828Z,7.90
2018-01-30T00:41:32.999Z,7.90
2018-01-30T00:43:59.919Z,7.90
2018-01-30T00:46:26.090Z,7.90
2018-01-30T00:48:52.282Z,7.90
2018-01-30T00:51:18.468Z,7.90
2018-01-30T00:53:44.611Z,7.90
2018-01-30T00:56:10.787Z,7.80
2018-01-30T00:58:37.720Z,7.80
2018-01-30T01:01:03.887Z,7.80
2018-01-30T01:03:30.795Z,7.80
2018-01-30T01:05:57.709Z,7.70
2018-01-30T01:08:23.879Z,7.70
2018-01-30T01:10:50.036Z,7.80
2018-01-30T01:13:16.208Z,7.70
2018-01-30T01:15:42.387Z,7.70
2018-01-30T01:18:08.563Z,7.70
2018-01-30T01:20:35.485Z,7.70
2018-01-30T01:23:02.574Z,7.80
2018-01-30T01:25:28.980Z,7.80
2018-01-30T01:27:55.920Z,7.80
2018-01-30T01:30:22.076Z,7.80
2018-01-30T01:32:48.220Z,7.80
2018-01-30T01:35:15.138Z,7.70
2018-01-30T01:37:42.050Z,7.80
2018-01-30T01:40:08.199Z,7.80
2018-01-30T01:42:34.392Z,7.80
2018-01-30T01:45:01.284Z,7.80
2018-01-30T01:47:27.443Z,7.80
2018-01-30T01:49:53.619Z,7.80
2018-01-30T01:52:19.793Z,7.80
2018-01-30T01:54:45.973Z,7.80
2018-01-30T01:57:12.879Z,7.80
2018-01-30T01:59:39.079Z,7.80
2018-01-30T02:02:05.278Z,7.80
2018-01-30T02:04:32.195Z,7.70
2018-01-30T02:06:58.352Z,7.70
2018-01-30T02:09:25.249Z,7.60
2018-01-30T02:11:51.424Z,7.70
2018-01-30T02:14:17.583Z,7.70
2018-01-30T02:16:44.520Z,7.60
2018-01-30T02:19:11.464Z,7.60
2018-01-30T02:21:37.632Z,7.60
2018-01-30T02:24:03.952Z,7.60
2018-01-30T02:26:30.371Z,7.60
2018-01-30T02:28:56.520Z,7.60
2018-01-30T02:31:23.420Z,7.70
2018-01-30T02:33:49.594Z,7.60
2018-01-30T02:36:16.508Z,7.70
2018-01-30T02:38:43.447Z,7.70
2018-01-30T02:41:09.641Z,7.70
2018-01-30T02:43:36.541Z,7.60
2018-01-30T02:46:02.712Z,7.60
2018-01-30T02:48:29.627Z,7.60
2018-01-30T02:50:55.796Z,7.60
2018-01-30T02:53:21.939Z,7.60
2018-01-30T02:55:48.120Z,7.60
2018-01-30T02:58:14.278Z,7.60
2018-01-30T03:00:40.455Z,7.60
2018-01-30T03:03:06.689Z,7.60
2018-01-30T03:05:32.880Z,7.50
2018-01-30T03:07:59.043Z,7.50
2018-01-30T03:10:25.952Z,7.50
2018-01-30T03:12:52.140Z,7.50
2018-01-30T03:15:18.304Z,7.50
2018-01-30T03:17:44.508Z,7.60
2018-01-30T03:20:10.668Z,7.50
2018-01-30T03:22:37.795Z,7.50
2018-01-30T03:25:04.130Z,7.50
2018-01-30T03:27:30.560Z,7.50
2018-01-30T03:29:57.463Z,7.40
2018-01-30T03:32:23.699Z,7.40
2018-01-30T03:34:49.907Z,7.40
2018-01-30T03:37:16.080Z,7.30
2018-01-30T03:39:42.267Z,7.30
2018-01-30T03:42:08.449Z,7.30
2018-01-30T03:44:34.607Z,7.30
2018-01-30T03:47:00.787Z,7.30
2018-01-30T03:49:26.954Z,7.30
2018-01-30T03:51:53.149Z,7.30
2018-01-30T03:54:19.352Z,7.30
2018-01-30T03:56:45.532Z,7.20
2018-01-30T03:59:11.692Z,7.20
2018-01-30T04:01:38.664Z,7.20
2018-01-30T04:04:04.840Z,7.20
2018-01-30T04:06:31.017Z,7.10
2018-01-30T04:08:57.922Z,7.20
2018-01-30T04:11:24.096Z,7.20
2018-01-30T04:13:50.259Z,7.20
2018-01-30T04:16:17.243Z,7.20
2018-01-30T04:18:43.414Z,7.10
2018-01-30T04:21:10.340Z,7.20
2018-01-30T04:23:36.524Z,7.20
2018-01-30T04:26:04.384Z,7.20
2018-01-30T04:28:32.318Z,7.20
2018-01-30T04:30:58.528Z,7.20
2018-01-30T04:33:24.676Z,7.30
2018-01-30T04:35:50.815Z,7.30
2018-01-30T04:38:16.975Z,7.30
2018-01-30T04:40:43.119Z,7.30
2018-01-30T04:43:10.006Z,7.20
2018-01-30T04:45:36.178Z,7.20
2018-01-30T04:48:02.348Z,7.20
2018-01-30T04:50:29.259Z,7.20
2018-01-30T04:52:55.441Z,7.20
2018-01-30T04:55:22.311Z,7.20
2018-01-30T04:57:48.447Z,7.20
2018-01-30T05:00:14.623Z,7.20
2018-01-30T05:02:40.762Z,7.20
2018-01-30T05:05:07.647Z,7.10
2018-01-30T05:07:33.825Z,7.10
2018-01-30T05:10:00.036Z,7.10
2018-01-30T05:12:26.172Z,7.10
2018-01-30T05:14:52.340Z,7.10
2018-01-30T05:17:19.229Z,7.10
2018-01-30T05:19:45.367Z,7.10
2018-01-30T05:22:11.521Z,6.90
2018-01-30T05:24:37.699Z,7.20
2018-01-30T05:27:04.723Z,7.20
2018-01-30T05:29:31.139Z,7.10
2018-01-30T05:31:57.293Z,7.10
2018-01-30T05:34:23.459Z,7.10
2018-01-30T05:36:49.633Z,7.10
2018-01-30T05:39:15.780Z,7.10
2018-01-30T05:41:41.929Z,7.20
2018-01-30T05:44:08.084Z,7.20
2018-01-30T05:46:34.972Z,7.20
2018-01-30T05:49:01.128Z,7.20
2018-01-30T05:51:27.290Z,7.20
2018-01-30T05:53:54.197Z,7.20
2018-01-30T05:56:20.331Z,7.20
2018-01-30T05:58:46.520Z,7.20
2018-01-30T06:01:13.405Z,7.10
2018-01-30T06:03:39.580Z,7.10
2018-01-30T06:06:05.785Z,7.10
2018-01-30T06:08:32.687Z,7.00
2018-01-30T06:10:58.822Z,7.00
2018-01-30T06:13:25.725Z,7.00
2018-01-30T06:15:51.881Z,7.00
2018-01-30T06:18:19.520Z,7.00
2018-01-30T06:20:45.694Z,7.00
2018-01-30T06:23:12.586Z,7.00
2018-01-30T06:25:38.740Z,7.00
2018-01-30T06:28:04.967Z,7.00
2018-01-30T06:30:31.308Z,7.00
2018-01-30T06:32:57.468Z,7.00
2018-01-30T06:35:23.644Z,7.00
2018-01-30T06:37:49.787Z,7.00
2018-01-30T06:40:15.939Z,7.00
2018-01-30T06:42:42.120Z,6.80
2018-01-30T06:45:09.005Z,6.90
2018-01-30T06:47:35.163Z,6.90
2018-01-30T06:50:01.321Z,6.90
2018-01-30T06:52:27.467Z,7.00
2018-01-30T06:54:54.408Z,7.00
2018-01-30T06:57:20.600Z,7.00
2018-01-30T06:59:46.764Z,6.90
2018-01-30T07:02:12.912Z,6.90
2018-01-30T07:04:39.056Z,6.80
2018-01-30T07:07:05.207Z,6.90
2018-01-30T07:09:31.364Z,6.90
2018-01-30T07:11:57.532Z,6.80
2018-01-30T07:14:23.692Z,6.90
2018-01-30T07:16:49.849Z,6.80
2018-01-30T07:19:16.030Z,6.80
2018-01-30T07:21:43.108Z,6.90
2018-01-30T07:24:10.028Z,6.90
2018-01-30T07:26:36.184Z,6.90
2018-01-30T07:29:02.460Z,6.90
2018-01-30T07:31:29.419Z,6.90
2018-01-30T07:33:55.628Z,6.80
2018-01-30T07:36:21.767Z,6.90
2018-01-30T07:38:47.915Z,6.90
2018-01-30T07:41:14.068Z,6.90
2018-01-30T07:43:40.239Z,6.90
2018-01-30T07:46:06.414Z,6.90
2018-01-30T07:48:32.567Z,6.90
2018-01-30T07:50:58.716Z,6.90
2018-01-30T07:53:24.896Z,7.00
2018-01-30T07:55:51.083Z,7.00
2018-01-30T07:58:18.211Z,7.00
2018-01-30T08:00:44.363Z,7.00
2018-01-30T08:03:10.552Z,7.00
2018-01-30T08:05:36.716Z,6.70
2018-01-30T08:08:04.423Z,7.00
2018-01-30T08:10:31.024Z,7.00
2018-01-30T08:12:57.183Z,7.10
2018-01-30T08:15:23.332Z,7.10
2018-01-30T08:17:50.236Z,7.10
2018-01-30T08:20:16.403Z,7.10
2018-01-30T08:22:43.291Z,7.00
2018-01-30T08:25:09.456Z,7.00
2018-01-30T08:27:35.612Z,7.00
2018-01-30T08:30:01.846Z,7.00
2018-01-30T08:32:38.419Z,7.00
2018-01-30T08:35:20.635Z,7.00
2018-01-30T08:38:02.698Z,7.00
2018-01-30T08:40:45.344Z,7.10
2018-01-30T08:43:27.207Z,7.10
2018-01-30T08:46:10.087Z,7.10
2018-01-30T08:48:51.684Z,7.10
2018-01-30T08:51:33.637Z,7.10
2018-01-30T08:54:16.155Z,7.10
2018-01-30T08:56:57.815Z,7.20
2018-01-30T08:59:40.069Z,7.10
2018-01-30T09:02:06.264Z,7.10
2018-01-30T09:04:32.408Z,7.20
2018-01-30T09:06:58.600Z,7.20
2018-01-30T09:09:24.747Z,7.20
2018-01-30T09:11:51.708Z,7.20
2018-01-30T09:14:18.672Z,7.30
2018-01-30T09:16:44.895Z,7.30
2018-01-30T09:19:11.843Z,7.30
2018-01-30T09:21:38.068Z,7.30
2018-01-30T09:24:05.068Z,7.30
2018-01-30T09:26:31.340Z,7.30
2018-01-30T09:28:57.572Z,7.40
2018-01-30T09:31:23.852Z,7.40
2018-01-30T09:33:50.129Z,7.50
2018-01-30T09:36:16.398Z,7.50
2018-01-30T09:38:43.373Z,7.50
2018-01-30T09:41:09.584Z,7.50
2018-01-30T09:43:36.572Z,7.60
2018-01-30T09:46:02.801Z,7.60
2018-01-30T09:48:29.028Z,7.60
2018-01-30T09:50:55.269Z,7.70
2018-01-30T09:53:21.510Z,7.70
2018-01-30T09:55:47.720Z,7.80
2018-01-30T09:58:14.046Z,7.80
2018-01-30T10:00:40.999Z,8.00
2018-01-30T10:03:07.961Z,8.10
2018-01-30T10:05:34.217Z,8.10
2018-01-30T10:08:00.440Z,8.30
2018-01-30T10:10:26.722Z,8.30
2018-01-30T10:12:53.731Z,8.40
2018-01-30T10:15:20.031Z,8.40
2018-01-30T10:17:47.015Z,8.50
2018-01-30T10:20:13.251Z,8.50
2018-01-30T10:22:39.487Z,8.50
2018-01-30T10:25:05.708Z,8.50
2018-01-30T10:27:31.950Z,8.50
2018-01-30T10:29:58.168Z,8.50
2018-01-30T10:32:24.455Z,8.50
2018-01-30T10:34:50.884Z,8.50
2018-01-30T10:37:17.084Z,8.50
2018-01-30T10:39:43.308Z,8.50
2018-01-30T10:42:10.307Z,8.40
2018-01-30T10:44:36.535Z,8.40
2018-01-30T10:47:02.763Z,8.40
2018-01-30T10:49:29.017Z,8.30
2018-01-30T10:51:55.233Z,8.30
2018-01-30T10:54:21.464Z,8.30
2018-01-30T10:56:47.725Z,8.30
2018-01-30T10:59:13.939Z,8.30
2018-01-30T11:01:40.188Z,8.20
2018-01-30T11:04:06.444Z,8.30
2018-01-30T11:06:32.673Z,8.30
2018-01-30T11:08:58.903Z,8.30
2018-01-30T11:11:25.132Z,8.40
2018-01-30T11:13:51.397Z,8.40
2018-01-30T11:16:18.360Z,8.30
2018-01-30T11:18:45.332Z,8.40
2018-01-30T11:21:11.537Z,8.40
2018-01-30T11:23:38.483Z,8.40
2018-01-30T11:26:05.468Z,8.40
2018-01-30T11:28:32.423Z,8.40
2018-01-30T11:30:58.691Z,8.40
2018-01-30T11:33:25.015Z,8.50
2018-01-30T11:35:51.418Z,8.50
2018-01-30T11:38:17.664Z,8.50
2018-01-30T11:40:43.921Z,8.50
2018-01-30T11:43:10.936Z,8.40
2018-01-30T11:45:37.910Z,8.40
2018-01-30T11:48:04.143Z,8.40
2018-01-30T11:50:30.357Z,8.30
2018-01-30T11:52:56.652Z,8.30
2018-01-30T11:55:22.883Z,8.30
2018-01-30T11:57:49.112Z,8.30
2018-01-30T12:00:15.352Z,8.30
2018-01-30T12:02:41.596Z,8.20
2018-01-30T12:05:09.283Z,8.20
2018-01-30T12:07:36.237Z,8.10
2018-01-30T12:10:02.479Z,8.10
2018-01-30T12:12:29.439Z,8.10
2018-01-30T12:14:56.407Z,8.00
2018-01-30T12:17:22.648Z,8.00
2018-01-30T12:19:48.875Z,8.00
2018-01-30T12:22:15.107Z,8.10
2018-01-30T12:24:41.348Z,8.10
2018-01-30T12:27:07.678Z,8.30
2018-01-30T12:29:33.875Z,8.30
2018-01-30T12:32:00.119Z,8.30
2018-01-30T12:34:27.135Z,8.30
2018-01-30T12:36:53.631Z,8.40
2018-01-30T12:39:20.600Z,8.40
2018-01-30T12:41:46.869Z,8.40
2018-01-30T12:44:13.091Z,8.40
2018-01-30T12:46:40.089Z,8.50
2018-01-30T12:49:07.052Z,8.50
2018-01-30T12:51:34.044Z,8.60
2018-01-30T12:54:01.048Z,8.60
2018-01-30T12:56:28.000Z,8.60
2018-01-30T12:58:54.230Z,8.60
2018-01-30T13:01:21.221Z,8.60
2018-01-30T13:03:47.464Z,8.60
2018-01-30T13:06:13.667Z,8.60
2018-01-30T13:08:40.662Z,8.50
2018-01-30T13:11:06.885Z,8.50
2018-01-30T13:13:33.092Z,8.50
2018-01-30T13:15:59.320Z,8.50
2018-01-30T13:18:26.273Z,8.60
2018-01-30T13:20:52.532Z,8.60
2018-01-30T13:23:18.783Z,8.60
2018-01-30T13:25:45.012Z,8.60
2018-01-30T13:28:11.227Z,8.60
2018-01-30T13:30:37.593Z,8.60
2018-01-30T13:33:03.819Z,8.60
2018-01-30T13:35:30.095Z,8.60
2018-01-30T13:37:57.279Z,8.50
2018-01-30T13:40:24.221Z,8.50
2018-01-30T13:42:51.223Z,8.60
2018-01-30T13:45:17.468Z,8.60
2018-01-30T13:47:43.677Z,8.60
2018-01-30T13:50:09.903Z,8.70
2018-01-30T13:52:36.292Z,8.70
2018-01-30T13:55:02.516Z,8.70
2018-01-30T13:57:28.722Z,8.70
2018-01-30T13:59:55.700Z,8.50
2018-01-30T14:02:21.935Z,8.50
2018-01-30T14:04:48.152Z,8.50
2018-01-30T14:07:14.386Z,8.50
2018-01-30T14:09:40.612Z,8.50
2018-01-30T14:12:06.864Z,8.50
2018-01-30T14:14:33.104Z,8.40
2018-01-30T14:16:59.341Z,8.40
2018-01-30T14:19:25.576Z,8.40
2018-01-30T14:21:51.824Z,8.40
2018-01-30T14:24:18.036Z,8.40
2018-01-30T14:26:44.276Z,8.30
2018-01-30T14:29:10.496Z,8.30
2018-01-30T14:31:36.720Z,8.30
2018-01-30T14:34:02.943Z,8.30
2018-01-30T14:36:29.228Z,8.30
2018-01-30T14:38:55.704Z,8.30
2018-01-30T14:41:21.937Z,8.30
2018-01-30T14:43:48.156Z,8.30
2018-01-30T14:46:15.120Z,8.30
2018-01-30T14:48:41.334Z,8.30
2018-01-30T14:51:08.309Z,8.30
2018-01-30T14:53:34.513Z,8.30
2018-01-30T14:56:00.732Z,8.40
2018-01-30T14:58:26.960Z,8.40
2018-01-30T15:00:53.246Z,8.40
2018-01-30T15:03:20.167Z,8.40
2018-01-30T15:05:47.144Z,8.40
2018-01-30T15:08:14.077Z,8.40
2018-01-30T15:10:41.038Z,8.40
2018-01-30T15:13:07.272Z,8.40
2018-01-30T15:15:33.540Z,8.40
2018-01-30T15:17:59.759Z,8.30
2018-01-30T15:20:25.984Z,8.30
2018-01-30T15:22:52.944Z,8.30
2018-01-30T15:25:19.152Z,8.30
2018-01-30T15:27:46.118Z,8.20
2018-01-30T15:30:13.065Z,8.20
2018-01-30T15:32:40.005Z,8.20
2018-01-30T15:35:06.996Z,8.20
2018-01-30T15:37:35.013Z,8.20
2018-01-30T15:40:02.760Z,8.10
2018-01-30T15:42:29.029Z,8.10
2018-01-30T15:44:55.240Z,8.10
2018-01-30T15:47:21.471Z,8.20
2018-01-30T15:49:47.721Z,8.20
2018-01-30T15:52:13.936Z,8.20
2018-01-30T15:54:40.157Z,8.20
2018-01-30T15:57:06.389Z,8.20
2018-01-30T15:59:32.640Z,8.30
2018-01-30T16:01:58.921Z,8.20
2018-01-30T16:04:25.945Z,8.20
2018-01-30T16:06:52.136Z,8.20
2018-01-30T16:09:18.342Z,8.20
2018-01-30T16:11:44.753Z,8.20
2018-01-30T16:14:11.062Z,8.20
2018-01-30T16:16:37.281Z,8.20
2018-01-30T16:19:03.567Z,8.20
2018-01-30T16:21:29.802Z,8.20
2018-01-30T16:23:56.784Z,8.10
2018-01-30T16:26:23.750Z,8.10
2018-01-30T16:28:49.975Z,8.10
2018-01-30T16:31:16.200Z,8.10
2018-01-30T16:33:43.179Z,8.00
2018-01-30T16:36:09.401Z,8.00
2018-01-30T16:38:36.339Z,8.10
2018-01-30T16:41:02.796Z,8.00
2018-01-30T16:43:29.087Z,8.00
2018-01-30T16:45:56.065Z,7.90
2018-01-30T16:48:23.052Z,7.90
2018-01-30T16:50:49.309Z,7.90
2018-01-30T16:53:15.539Z,8.00
2018-01-30T16:55:41.786Z,7.90
2018-01-30T16:58:08.775Z,7.90
2018-01-30T17:00:35.039Z,7.90
2018-01-30T17:03:01.305Z,7.90
2018-01-30T17:05:27.532Z,7.90
2018-01-30T17:07:53.792Z,7.90
2018-01-30T17:10:20.798Z,7.80
2018-01-30T17:12:47.046Z,7.80
2018-01-30T17:15:13.292Z,7.80
2018-01-30T17:17:39.524Z,7.70
2018-01-30T17:20:07.241Z,7.70
2018-01-30T17:22:33.642Z,7.70
2018-01-30T17:24:59.870Z,7.80
2018-01-30T17:27:26.187Z,7.80
2018-01-30T17:29:52.563Z,7.80
2018-01-30T17:32:18.961Z,7.80
2018-01-30T17:34:45.159Z,7.80
2018-01-30T17:37:12.112Z,7.80
2018-01-30T17:39:38.439Z,7.80
2018-01-30T17:42:04.896Z,7.80
2018-01-30T17:44:31.104Z,7.80
2018-01-30T17:46:58.075Z,7.70
2018-01-30T17:49:24.303Z,7.70
2018-01-30T17:51:51.272Z,7.70
2018-01-30T17:54:17.491Z,7.70
2018-01-30T17:56:43.748Z,7.70
2018-01-30T17:59:09.994Z,7.70
2018-01-30T18:01:36.239Z,7.50
2018-01-30T18:04:02.464Z,7.70
2018-01-30T18:06:28.696Z,7.70
2018-01-30T18:08:54.956Z,7.70
2018-01-30T18:11:21.169Z,7.70
2018-01-30T18:13:47.416Z,7.70
2018-01-30T18:16:13.654Z,7.70
2018-01-30T18:18:40.625Z,7.70
2018-01-30T18:21:07.605Z,7.70
2018-01-30T18:23:33.851Z,7.70
2018-01-30T18:26:00.120Z,7.60
2018-01-30T18:28:26.341Z,7.60
2018-01-30T18:30:52.571Z,7.60
2018-01-30T18:33:18.789Z,7.60
2018-01-30T18:35:44.996Z,7.60
2018-01-30T18:38:11.223Z,7.60
2018-01-30T18:40:37.554Z,7.50
2018-01-30T18:43:04.072Z,7.50
2018-01-30T18:45:30.349Z,7.40
2018-01-30T18:47:57.304Z,7.40
2018-01-30T18:50:24.288Z,7.40
2018-01-30T18:52:50.548Z,7.40
2018-01-30T18:55:17.527Z,7.30
2018-01-30T18:57:43.759Z,7.30
2018-01-30T19:00:10.031Z,7.30
2018-01-30T19:02:36.260Z,7.30
2018-01-30T19:05:02.502Z,7.30
2018-01-30T19:07:28.752Z,7.30
2018-01-30T19:09:54.979Z,7.20
2018-01-30T19:12:21.176Z,7.10
2018-01-30T19:14:48.171Z,7.00
2018-01-30T19:17:14.378Z,7.00
2018-01-30T19:19:40.607Z,7.00
2018-01-30T19:22:07.644Z,7.00
2018-01-30T19:24:33.937Z,7.00
2018-01-30T19:27:00.188Z,7.00
2018-01-30T19:29:26.448Z,7.00
2018-01-30T19:31:52.672Z,7.00
2018-01-30T19:34:18.958Z,6.90
2018-01-30T19:36:45.224Z,6.90
2018-01-30T19:39:11.452Z,6.90
2018-01-30T19:41:37.767Z,6.90
2018-01-30T19:44:04.255Z,6.90
2018-01-30T19:46:30.496Z,6.90
2018-01-30T19:48:56.723Z,6.90
2018-01-30T19:51:23.146Z,6.90
2018-01-30T19:53:49.352Z,6.80
2018-01-30T19:56:15.563Z,6.80
2018-01-30T19:58:41.843Z,6.80
2018-01-30T20:01:08.058Z,6.80
2018-01-30T20:03:34.310Z,6.80
2018-01-30T20:06:00.598Z,6.80
2018-01-30T20:08:26.881Z,6.90
2018-01-30T20:10:53.163Z,6.90
2018-01-30T20:13:20.186Z,6.90
2018-01-30T20:15:46.430Z,6.80
2018-01-30T20:18:12.755Z,6.90
2018-01-30T20:20:39.001Z,6.80
2018-01-30T20:23:05.999Z,6.90
2018-01-30T20:25:32.243Z,6.90
2018-01-30T20:27:58.492Z,6.90
2018-01-30T20:30:24.735Z,6.90
2018-01-30T20:32:50.966Z,6.90
2018-01-30T20:35:17.329Z,6.80
2018-01-30T20:37:43.636Z,6.80
2018-01-30T20:40:09.914Z,6.80
2018-01-30T20:42:37.073Z,6.70
2018-01-30T20:45:03.576Z,6.70
2018-01-30T20:47:29.841Z,6.70
2018-01-30T20:49:56.840Z,6.70
2018-01-30T20:52:23.078Z,6.70
2018-01-30T20:54:49.307Z,6.60
2018-01-30T20:57:15.610Z,6.70
2018-01-30T20:59:42.588Z,6.60
2018-01-30T21:02:08.831Z,6.60
2018-01-30T21:04:35.063Z,6.60
2018-01-30T21:07:01.304Z,6.60
2018-01-30T21:09:27.523Z,6.60
2018-01-30T21:11:53.763Z,6.70
2018-01-30T21:14:19.993Z,6.70
2018-01-30T21:16:46.952Z,6.70
2018-01-30T21:19:13.244Z,6.70
2018-01-30T21:21:39.472Z,6.80
2018-01-30T21:24:06.476Z,6.80
2018-01-30T21:26:32.711Z,6.80
2018-01-30T21:28:58.940Z,6.80
2018-01-30T21:31:25.201Z,6.80
2018-01-30T21:33:51.535Z,6.80
2018-01-30T21:36:17.760Z,6.90
2018-01-30T21:38:43.987Z,6.90
2018-01-30T21:41:10.219Z,6.90
2018-01-30T21:43:36.545Z,6.90
2018-01-30T21:46:03.032Z,6.90
2018-01-30T21:48:29.327Z,6.90
2018-01-30T21:50:55.575Z,6.90
2018-01-30T21:53:21.874Z,6.90
2018-01-30T21:55:48.136Z,6.90
2018-01-30T21:58:14.377Z,6.90
2018-01-30T22:00:40.623Z,6.90
2018-01-30T22:03:06.841Z,6.80
2018-01-30T22:05:33.060Z,6.80
2018-01-30T22:08:00.007Z,6.80
2018-01-30T22:10:26.967Z,6.80
2018-01-30T22:12:53.200Z,6.70
2018-01-30T22:15:19.459Z,6.70
2018-01-30T22:17:45.695Z,6.70
2018-01-30T22:20:11.933Z,6.70
2018-01-30T22:22:38.192Z,6.70
2018-01-30T22:25:04.439Z,6.70
2018-01-30T22:27:31.452Z,6.70
2018-01-30T22:29:57.663Z,6.80
2018-01-30T22:32:23.904Z,6.70
2018-01-30T22:34:50.847Z,6.70
2018-01-30T22:37:17.083Z,6.70
2018-01-30T22:39:43.343Z,6.70
2018-01-30T22:42:09.568Z,6.60
2018-01-30T22:44:36.059Z,6.60
2018-01-30T22:47:02.367Z,6.60
